Time;durP1;ratioP1;P1;durP2;ratioP2;P2;SDS_P1;SDS_P2;PMS_P1;PMS_P2;Temp;Humidity;BMP_temperature;BMP_pressure;BME280_temperature;BME280_humidity;BME280_pressure;Samples;Min_cycle;Max_cycle;Signal;HPM_P1;HPM_P2
2022/03/30 00:01:20;;;;;;;36.75;19.27;;;3.10;99.90;;;;;;5129473;28;20047;-81
2022/03/30 00:03:46;;;;;;;39.58;18.30;;;3.20;99.90;;;;;;5129562;28;20378;-79
2022/03/30 00:06:12;;;;;;;35.70;18.08;;;3.20;99.90;;;;;;5129999;28;20142;-82
2022/03/30 00:08:37;;;;;;;33.17;17.00;;;3.30;99.90;;;;;;5130319;28;20084;-77
2022/03/30 00:11:03;;;;;;;34.17;17.15;;;3.30;99.90;;;;;;5130024;28;20086;-77
2022/03/30 00:13:29;;;;;;;30.85;16.42;;;3.30;99.90;;;;;;5126898;28;20055;-75
2022/03/30 00:15:55;;;;;;;35.55;17.35;;;3.40;99.90;;;;;;5130235;27;20047;-77
2022/03/30 00:18:21;;;;;;;29.55;16.92;;;3.40;99.90;;;;;;5128373;28;20042;-75
2022/03/30 00:20:47;;;;;;;35.42;17.80;;;3.40;99.90;;;;;;5130067;28;20147;-78
2022/03/30 00:23:13;;;;;;;35.30;16.45;;;3.40;99.90;;;;;;5128099;28;20094;-79
2022/03/30 00:25:39;;;;;;;32.85;15.80;;;3.40;99.90;;;;;;5128669;28;20070;-85
2022/03/30 00:28:05;;;;;;;39.22;17.45;;;3.50;99.90;;;;;;5128471;28;20075;-72
2022/03/30 00:30:31;;;;;;;33.58;16.05;;;3.60;99.90;;;;;;5129956;28;20053;-76
2022/03/30 00:32:56;;;;;;;31.35;17.75;;;3.60;99.90;;;;;;5129909;28;20043;-82
2022/03/30 00:35:23;;;;;;;35.58;17.20;;;3.60;99.90;;;;;;5130515;27;20118;-77
2022/03/30 00:37:49;;;;;;;37.28;17.63;;;3.60;99.90;;;;;;5133657;27;20124;-81
2022/03/30 00:40:16;;;;;;;37.58;17.00;;;3.70;99.90;;;;;;5133740;27;20039;-81
2022/03/30 00:42:42;;;;;;;29.17;15.88;;;3.70;99.90;;;;;;5131669;27;20466;-78
2022/03/30 00:45:16;;;;;;;41.38;16.60;;;3.80;99.90;;;;;;5133732;27;20126;-81
2022/03/30 00:47:42;;;;;;;38.13;16.47;;;3.80;99.90;;;;;;5131950;27;20087;-81
2022/03/30 00:50:11;;;;;;;40.50;18.50;;;3.80;99.90;;;;;;5133455;27;20311;-82
2022/03/30 00:52:38;;;;;;;37.83;17.17;;;3.90;99.90;;;;;;5130098;27;20055;-80
2022/03/30 00:55:05;;;;;;;36.30;16.58;;;3.90;99.90;;;;;;5133703;27;20070;-75
2022/03/30 00:57:32;;;;;;;40.17;16.15;;;3.90;99.90;;;;;;5133528;27;20050;-78
2022/03/30 00:59:58;;;;;;;33.30;16.05;;;4.00;99.90;;;;;;5131940;27;20051;-73
2022/03/30 01:02:25;;;;;;;36.30;16.25;;;4.00;99.90;;;;;;5130240;27;20039;-71
2022/03/30 01:04:51;;;;;;;39.20;17.52;;;4.00;99.90;;;;;;5112357;28;20047;-75
2022/03/30 01:07:17;;;;;;;32.70;15.23;;;4.10;99.90;;;;;;5112739;28;20486;-80
2022/03/30 01:09:42;;;;;;;33.60;15.50;;;4.10;99.90;;;;;;5113219;28;20089;-78
2022/03/30 01:12:09;;;;;;;33.50;15.02;;;4.10;99.90;;;;;;5113053;28;20132;-79
2022/03/30 01:14:35;;;;;;;41.38;15.80;;;4.10;99.90;;;;;;5111947;27;20055;-71
2022/03/30 01:17:01;;;;;;;36.88;15.80;;;4.20;99.90;;;;;;5112980;28;20410;-80
2022/03/30 01:19:32;;;;;;;37.40;14.75;;;4.20;99.90;;;;;;5112669;28;20047;-81
2022/03/30 01:21:59;;;;;;;36.05;14.93;;;4.20;99.90;;;;;;5113582;27;20047;-79
2022/03/30 01:24:25;;;;;;;36.60;15.57;;;4.20;99.90;;;;;;5111051;28;20068;-79
2022/03/30 01:26:50;;;;;;;39.35;16.05;;;4.30;99.90;;;;;;5112568;28;20043;-77
2022/03/30 01:34:45;;;;;;;37.88;14.82;;;4.30;99.90;;;;;;5112351;28;20504;-80
2022/03/30 01:37:13;;;;;;;34.10;14.43;;;4.40;99.90;;;;;;5112655;28;20081;-78
2022/03/30 01:39:40;;;;;;;35.13;15.48;;;4.40;99.90;;;;;;5112654;28;20134;-83
2022/03/30 01:42:06;;;;;;;36.88;14.60;;;4.40;99.90;;;;;;5095200;27;20055;-82
2022/03/30 01:44:33;;;;;;;33.42;14.25;;;4.40;99.90;;;;;;5112044;27;20778;-76
2022/03/30 01:46:58;;;;;;;30.40;14.65;;;4.50;99.90;;;;;;5111154;28;20111;-72
2022/03/30 01:49:24;;;;;;;35.72;14.02;;;4.50;99.90;;;;;;5111757;28;20134;-76
2022/03/30 01:51:55;;;;;;;37.60;14.27;;;4.50;99.90;;;;;;5111681;27;20534;-74
2022/03/30 01:54:23;;;;;;;38.47;14.88;;;4.60;99.90;;;;;;5110602;28;20075;-77
2022/03/30 01:56:51;;;;;;;30.73;14.27;;;4.60;99.90;;;;;;5111894;28;20032;-73
2022/03/30 01:59:18;;;;;;;40.15;16.08;;;4.60;99.90;;;;;;5111927;28;20123;-80
2022/03/30 02:01:43;;;;;;;32.85;15.40;;;4.60;99.90;;;;;;5119076;27;20047;-79
2022/03/30 02:04:09;;;;;;;34.67;14.73;;;4.60;99.90;;;;;;5130544;27;20096;-71
2022/03/30 02:06:36;;;;;;;35.00;14.93;;;5.10;99.90;;;;;;5132267;27;20532;-74
2022/03/30 02:09:03;;;;;;;37.25;15.05;;;4.90;99.90;;;;;;5124873;27;20051;-83
2022/03/30 02:11:29;;;;;;;27.60;13.77;;;4.70;99.90;;;;;;5122521;27;20046;-76
2022/03/30 02:13:56;;;;;;;30.58;14.98;;;4.70;99.90;;;;;;5124044;27;20463;-73
2022/03/30 02:16:23;;;;;;;32.72;14.75;;;4.70;99.90;;;;;;5109379;27;20052;-79
2022/03/30 02:18:48;;;;;;;36.08;14.65;;;4.70;99.90;;;;;;5111058;28;20402;-78
2022/03/30 02:21:15;;;;;;;29.25;13.85;;;5.10;99.90;;;;;;5111503;28;20028;-75
2022/03/30 02:23:41;;;;;;;32.13;15.10;;;4.80;99.90;;;;;;5113149;27;20044;-81
2022/03/30 02:26:07;;;;;;;33.35;14.00;;;4.80;99.90;;;;;;5111541;27;20044;-75
2022/03/30 02:28:33;;;;;;;37.72;15.82;;;4.90;99.90;;;;;;5110248;27;20448;-78
2022/03/30 02:30:59;;;;;;;32.72;15.07;;;4.90;99.90;;;;;;5110969;28;20047;-80
2022/03/30 02:33:24;;;;;;;33.50;13.90;;;4.90;99.90;;;;;;5112081;28;20403;-72
2022/03/30 02:35:51;;;;;;;32.42;15.63;;;4.90;99.90;;;;;;5111278;28;20040;-72
2022/03/30 02:38:17;;;;;;;28.05;15.18;;;4.90;99.90;;;;;;5109766;28;20039;-80
2022/03/30 02:40:43;;;;;;;33.22;14.25;;;4.90;99.90;;;;;;5111133;27;20067;-72
2022/03/30 02:43:10;;;;;;;34.25;15.60;;;5.00;99.90;;;;;;5110732;27;20398;-78
2022/03/30 02:45:36;;;;;;;32.55;16.10;;;4.90;99.90;;;;;;5110978;28;20521;-76
2022/03/30 02:48:22;;;;;;;32.30;14.35;;;5.00;99.90;;;;;;5111530;27;20056;-78
2022/03/30 02:50:51;;;;;;;36.30;15.40;;;5.00;99.90;;;;;;5109350;28;20063;-73
2022/03/30 02:53:18;;;;;;;41.97;16.27;;;5.00;99.90;;;;;;5113233;27;20050;-76
2022/03/30 02:55:44;;;;;;;29.38;13.95;;;5.00;99.90;;;;;;5129260;27;20042;-81
2022/03/30 02:58:10;;;;;;;30.33;14.18;;;5.10;99.90;;;;;;5131063;27;20502;-73
2022/03/30 03:00:37;;;;;;;29.13;12.68;;;5.10;99.90;;;;;;5129332;27;20043;-74
2022/03/30 03:03:03;;;;;;;21.00;11.32;;;5.20;99.90;;;;;;5119343;27;20067;-82
2022/03/30 03:05:32;;;;;;;19.13;8.60;;;5.20;99.90;;;;;;5130836;27;20501;-78
2022/03/30 03:08:06;;;;;;;11.95;3.53;;;5.30;99.90;;;;;;5117401;27;20043;-82
2022/03/30 03:10:34;;;;;;;7.37;2.40;;;5.30;99.90;;;;;;5110357;28;20056;-83
2022/03/30 03:13:03;;;;;;;9.88;2.35;;;5.30;99.90;;;;;;5129435;27;20074;-80
2022/03/30 03:15:34;;;;;;;5.07;1.60;;;5.30;99.90;;;;;;5128955;27;20051;-78
2022/03/30 03:18:03;;;;;;;3.15;1.42;;;5.40;99.90;;;;;;5129473;27;20387;-78
2022/03/30 03:20:30;;;;;;;2.53;0.70;;;5.40;99.90;;;;;;5130570;27;20035;-79
2022/03/30 03:22:56;;;;;;;4.70;0.70;;;5.40;99.90;;;;;;5128780;27;20047;-77
2022/03/30 03:25:22;;;;;;;1.58;0.50;;;5.60;99.90;;;;;;5127670;27;20053;-78
2022/03/30 03:27:48;;;;;;;2.10;0.63;;;5.40;99.90;;;;;;5130644;27;20069;-81
2022/03/30 03:30:14;;;;;;;1.25;0.47;;;5.40;99.90;;;;;;5130761;27;20054;-78
2022/03/30 03:32:41;;;;;;;3.20;0.68;;;5.40;99.90;;;;;;5129797;27;20062;-79
2022/03/30 03:35:09;;;;;;;3.40;0.60;;;5.40;99.90;;;;;;5130720;27;20050;-79
2022/03/30 03:37:39;;;;;;;3.40;0.55;;;5.40;99.90;;;;;;5128394;27;20162;-80
2022/03/30 03:40:06;;;;;;;1.63;0.60;;;5.50;99.90;;;;;;5129380;27;20051;-81
2022/03/30 03:42:32;;;;;;;5.85;0.68;;;5.50;99.90;;;;;;5124980;27;20169;-79
2022/03/30 03:44:58;;;;;;;2.47;0.60;;;5.50;99.90;;;;;;5114643;27;20055;-77
2022/03/30 03:47:24;;;;;;;1.77;0.43;;;5.50;99.90;;;;;;5111184;28;20039;-74
2022/03/30 03:49:50;;;;;;;1.05;0.50;;;5.50;99.90;;;;;;5109588;28;20050;-72
2022/03/30 03:52:16;;;;;;;2.08;0.75;;;5.50;99.90;;;;;;5108516;28;20046;-76
2022/03/30 03:54:41;;;;;;;0.98;0.40;;;5.40;99.90;;;;;;5108646;28;20043;-73
2022/03/30 03:57:08;;;;;;;2.72;0.77;;;5.40;99.90;;;;;;5109593;28;20078;-81
2022/03/30 03:59:33;;;;;;;1.98;0.50;;;5.40;99.90;;;;;;5108427;28;20040;-77
2022/03/30 04:01:59;;;;;;;1.42;0.38;;;5.40;99.90;;;;;;5094859;28;20521;-80
2022/03/30 04:04:25;;;;;;;2.28;0.40;;;5.40;99.90;;;;;;5109364;28;20040;-77
2022/03/30 04:06:51;;;;;;;1.90;0.52;;;5.40;99.90;;;;;;5109814;28;20086;-80
2022/03/30 04:09:16;;;;;;;4.10;0.32;;;5.40;99.90;;;;;;5110021;28;20051;-82
2022/03/30 04:11:42;;;;;;;2.95;0.40;;;5.40;99.90;;;;;;5113620;27;20083;-80
2022/03/30 04:14:08;;;;;;;0.88;0.30;;;5.40;99.90;;;;;;5113896;28;20134;-80
2022/03/30 04:16:33;;;;;;;2.58;0.40;;;5.40;99.90;;;;;;5112534;28;20044;-81
2022/03/30 04:18:59;;;;;;;1.15;0.30;;;5.40;99.90;;;;;;5114929;27;20496;-70
2022/03/30 04:21:25;;;;;;;0.65;0.30;;;5.30;99.90;;;;;;5113464;28;20126;-70
2022/03/30 04:23:50;;;;;;;4.00;0.43;;;5.30;99.90;;;;;;5113705;28;20229;-71
2022/03/30 04:26:16;;;;;;;2.50;0.32;;;5.30;99.90;;;;;;5113505;28;20078;-74
2022/03/30 04:28:42;;;;;;;2.85;0.52;;;5.30;99.90;;;;;;5095242;28;20054;-71
2022/03/30 04:31:08;;;;;;;4.03;0.43;;;5.30;99.90;;;;;;5112313;27;20059;-73
2022/03/30 04:33:35;;;;;;;1.55;0.40;;;5.30;99.90;;;;;;5134170;27;20138;-71
2022/03/30 04:36:01;;;;;;;2.67;0.43;;;5.30;99.90;;;;;;5127704;27;20081;-71
2022/03/30 04:38:27;;;;;;;0.50;0.40;;;5.20;99.90;;;;;;5112123;28;20052;-70
2022/03/30 04:40:52;;;;;;;1.10;0.70;;;5.20;99.90;;;;;;5121295;27;20051;-71
2022/03/30 04:43:18;;;;;;;3.40;0.60;;;5.20;99.90;;;;;;5115756;27;20129;-70
2022/03/30 04:45:43;;;;;;;0.85;0.40;;;5.10;99.90;;;;;;5133846;27;20509;-72
2022/03/30 04:48:09;;;;;;;1.27;0.40;;;5.10;99.90;;;;;;5115274;27;20339;-72
2022/03/30 04:50:35;;;;;;;2.63;0.57;;;5.00;99.90;;;;;;5114381;27;20129;-72
2022/03/30 04:53:00;;;;;;;1.50;0.60;;;5.00;99.90;;;;;;5133292;27;20417;-72
2022/03/30 04:55:26;;;;;;;1.30;0.50;;;5.00;99.90;;;;;;5115044;27;20039;-71
2022/03/30 04:57:52;;;;;;;3.72;0.65;;;5.00;99.90;;;;;;5133490;27;20043;-70
2022/03/30 05:00:19;;;;;;;2.95;0.68;;;4.90;99.90;;;;;;5132990;27;20080;-71
2022/03/30 05:02:45;;;;;;;2.70;0.52;;;4.90;99.90;;;;;;5132890;27;20047;-70
2022/03/30 05:05:11;;;;;;;3.05;0.70;;;4.90;99.90;;;;;;5133295;27;20054;-70
2022/03/30 05:07:37;;;;;;;1.20;0.57;;;4.80;99.90;;;;;;5133256;27;20039;-74
2022/03/30 05:10:09;;;;;;;3.50;0.80;;;4.70;99.90;;;;;;5111255;28;20050;-71
2022/03/30 05:12:35;;;;;;;3.95;0.70;;;4.70;99.90;;;;;;5126915;27;20059;-80
2022/03/30 05:15:01;;;;;;;4.05;0.80;;;4.70;99.90;;;;;;5133129;27;20413;-75
2022/03/30 05:17:27;;;;;;;1.85;0.80;;;4.60;99.90;;;;;;5114458;27;20043;-75
2022/03/30 05:19:52;;;;;;;1.17;0.60;;;4.60;99.90;;;;;;5133288;27;20397;-74
2022/03/30 05:22:18;;;;;;;4.60;0.80;;;4.60;99.90;;;;;;5131025;27;20457;-73
2022/03/30 05:24:44;;;;;;;1.98;0.85;;;4.50;99.90;;;;;;5114423;27;20039;-82
2022/03/30 05:27:11;;;;;;;2.20;0.80;;;4.50;99.90;;;;;;5114678;27;20039;-81
2022/03/30 05:29:37;;;;;;;5.18;0.98;;;4.50;99.90;;;;;;5132695;27;20043;-81
2022/03/30 05:32:03;;;;;;;8.13;1.20;;;4.50;99.90;;;;;;5132382;27;20043;-82
2022/03/30 05:34:29;;;;;;;4.18;0.90;;;4.50;99.90;;;;;;5114369;27;20542;-80
2022/03/30 05:36:56;;;;;;;2.85;1.00;;;4.40;99.90;;;;;;5114442;27;20059;-76
2022/03/30 05:39:22;;;;;;;2.88;1.00;;;4.40;99.90;;;;;;5132123;27;20050;-82
2022/03/30 05:41:48;;;;;;;6.78;1.42;;;4.50;99.90;;;;;;5132161;27;20034;-82
2022/03/30 05:44:13;;;;;;;4.78;1.27;;;4.40;99.90;;;;;;5130806;27;20413;-80
2022/03/30 05:46:39;;;;;;;2.58;0.90;;;4.30;99.90;;;;;;5132633;27;20043;-79
2022/03/30 05:49:05;;;;;;;2.05;1.00;;;4.30;99.90;;;;;;5113905;27;20815;-81
2022/03/30 05:51:32;;;;;;;3.90;1.10;;;4.30;99.90;;;;;;5132238;27;20049;-82
2022/03/30 05:53:58;;;;;;;6.93;1.20;;;4.30;99.90;;;;;;5111614;27;20063;-81
2022/03/30 05:57:00;;;;;;;3.13;1.10;;;4.30;99.90;;;;;;5132124;27;20042;-77
2022/03/30 05:59:10;;;;;;;2.42;1.25;;;4.20;99.90;;;;;;5132196;27;20043;-76
2022/03/30 06:01:35;;;;;;;3.50;1.15;;;4.20;99.90;;;;;;5111841;27;20387;-73
2022/03/30 06:04:02;;;;;;;2.47;1.00;;;4.20;99.90;;;;;;5130072;27;20047;-75
2022/03/30 06:06:28;;;;;;;4.40;1.42;;;4.20;99.90;;;;;;5132207;27;20450;-81
2022/03/30 06:08:53;;;;;;;5.10;1.20;;;4.20;99.90;;;;;;5130159;27;20053;-81
2022/03/30 06:11:19;;;;;;;5.03;1.20;;;4.20;99.90;;;;;;5113293;27;20051;-74
2022/03/30 06:13:45;;;;;;;4.50;1.10;;;4.20;99.90;;;;;;5130530;27;20490;-75
2022/03/30 06:16:13;;;;;;;3.88;1.30;;;4.20;99.90;;;;;;5113240;27;20159;-81
2022/03/30 06:18:39;;;;;;;4.55;1.00;;;4.20;99.90;;;;;;5131863;27;20167;-83
2022/03/30 06:21:05;;;;;;;6.15;1.13;;;4.20;99.90;;;;;;5113362;27;20039;-82
2022/03/30 06:23:30;;;;;;;4.32;1.25;;;4.20;99.90;;;;;;5131686;27;20442;-81
2022/03/30 06:25:56;;;;;;;5.00;1.45;;;4.30;99.90;;;;;;5110606;27;20051;-81
2022/03/30 06:28:26;;;;;;;6.03;2.10;;;4.30;99.90;;;;;;5131166;27;20108;-77
2022/03/30 06:30:52;;;;;;;8.00;1.77;;;4.30;99.90;;;;;;5130960;27;20054;-80
2022/03/30 06:33:17;;;;;;;6.28;1.40;;;4.40;99.90;;;;;;5112702;27;20691;-80
2022/03/30 06:35:43;;;;;;;4.63;1.50;;;4.40;99.90;;;;;;5111458;27;20092;-77
2022/03/30 06:38:10;;;;;;;6.28;1.60;;;5.30;99.90;;;;;;5128765;27;20036;-81
2022/03/30 06:40:36;;;;;;;4.30;1.50;;;4.60;99.90;;;;;;5131320;27;20069;-80
2022/03/30 06:43:01;;;;;;;5.63;1.40;;;4.70;99.90;;;;;;5131623;27;20047;-71
2022/03/30 06:45:27;;;;;;;4.57;1.63;;;4.70;99.90;;;;;;5112063;27;20047;-81
2022/03/30 06:47:53;;;;;;;7.78;1.80;;;5.20;99.90;;;;;;5130673;27;20145;-79
2022/03/30 06:50:20;;;;;;;4.10;1.40;;;4.80;99.90;;;;;;5131331;27;20043;-78
2022/03/30 06:52:49;;;;;;;5.95;1.63;;;4.90;99.90;;;;;;5112715;27;20084;-71
2022/03/30 06:55:15;;;;;;;9.15;1.70;;;5.00;99.90;;;;;;5131087;27;20039;-78
2022/03/30 06:57:43;;;;;;;7.40;1.65;;;5.10;99.90;;;;;;5129410;27;20035;-81
2022/03/30 07:00:13;;;;;;;6.07;1.80;;;5.10;99.90;;;;;;5112236;27;20054;-76
2022/03/30 07:02:40;;;;;;;7.95;1.80;;;5.20;99.90;;;;;;5110612;28;20522;-81
2022/03/30 07:05:06;;;;;;;4.78;1.42;;;5.20;99.90;;;;;;5110502;28;20051;-74
2022/03/30 07:10:19;;;;;;;5.05;1.58;;;5.30;99.90;;;;;;5110353;28;20087;-73
2022/03/30 07:12:50;;;;;;;4.18;1.65;;;5.40;99.90;;;;;;5109769;28;20056;-72
2022/03/30 07:15:19;;;;;;;8.73;1.77;;;5.50;99.90;;;;;;5092099;28;20585;-73
2022/03/30 07:17:50;;;;;;;4.63;1.80;;;5.60;99.90;;;;;;5092481;27;20043;-71
2022/03/30 07:20:17;;;;;;;5.15;1.60;;;5.60;99.90;;;;;;5110193;28;20054;-72
2022/03/30 07:22:44;;;;;;;6.55;1.85;;;6.00;99.90;;;;;;5110299;28;20044;-74
2022/03/30 07:25:11;;;;;;;10.50;2.10;;;5.70;99.90;;;;;;5110303;28;20039;-79
2022/03/30 07:27:46;;;;;;;8.90;2.00;;;5.80;99.90;;;;;;5101421;28;20058;-73
2022/03/30 07:30:14;;;;;;;9.63;1.65;;;5.80;99.90;;;;;;5111332;28;20051;-76
2022/03/30 07:32:42;;;;;;;7.00;2.03;;;5.90;99.90;;;;;;5108769;28;20054;-76
2022/03/30 07:35:10;;;;;;;6.53;1.38;;;5.90;99.90;;;;;;5108958;28;20051;-82
2022/03/30 07:37:37;;;;;;;11.15;1.85;;;6.00;99.90;;;;;;5110394;28;20040;-73
2022/03/30 07:40:05;;;;;;;10.00;1.88;;;6.10;99.90;;;;;;5111241;27;20532;-71
2022/03/30 07:42:31;;;;;;;5.40;1.33;;;6.10;99.90;;;;;;5108348;28;20126;-72
2022/03/30 07:44:57;;;;;;;8.52;1.58;;;6.20;99.90;;;;;;5109454;28;20127;-75
2022/03/30 07:47:24;;;;;;;9.88;1.27;;;6.20;99.90;;;;;;5110229;28;20044;-74
2022/03/30 07:49:50;;;;;;;6.22;1.45;;;6.30;99.90;;;;;;5109876;28;20036;-73
2022/03/30 07:52:15;;;;;;;4.75;1.30;;;6.40;99.90;;;;;;5110100;28;20044;-72
2022/03/30 07:54:42;;;;;;;4.72;1.60;;;6.50;99.90;;;;;;5109986;28;20055;-71
2022/03/30 07:57:09;;;;;;;3.63;0.85;;;6.50;99.90;;;;;;5111077;28;20036;-73
2022/03/30 07:59:34;;;;;;;5.88;1.00;;;6.60;99.90;;;;;;5114579;28;20047;-72
2022/03/30 08:02:00;;;;;;;4.20;1.10;;;6.60;99.90;;;;;;5110262;28;20081;-71
2022/03/30 08:04:26;;;;;;;5.82;1.00;;;6.70;99.90;;;;;;5110085;28;20463;-70
2022/03/30 08:06:53;;;;;;;6.15;0.98;;;6.70;99.90;;;;;;5108756;28;20126;-70
2022/03/30 08:09:19;;;;;;;5.53;1.65;;;7.10;99.90;;;;;;5109779;28;20050;-71
2022/03/30 08:11:45;;;;;;;6.45;1.20;;;6.80;99.90;;;;;;5108211;28;20480;-71
2022/03/30 08:14:12;;;;;;;3.85;1.30;;;6.80;99.90;;;;;;5109819;28;20052;-70
2022/03/30 08:16:39;;;;;;;4.95;1.10;;;6.80;99.90;;;;;;5109598;28;20051;-70
2022/03/30 08:19:05;;;;;;;4.80;1.10;;;6.90;99.90;;;;;;5109648;28;20097;-71
2022/03/30 08:24:15;;;;;;;6.30;0.90;;;6.90;99.90;;;;;;5095132;28;20051;-71
2022/03/30 08:26:41;;;;;;;6.35;1.58;;;6.90;99.90;;;;;;5121047;28;20118;-71
2022/03/30 08:29:08;;;;;;;8.27;1.55;;;6.90;99.90;;;;;;5120918;28;20069;-71
2022/03/30 08:31:34;;;;;;;2.58;0.70;;;6.90;99.90;;;;;;5128582;28;20123;-69
2022/03/30 08:34:00;;;;;;;4.65;0.90;;;7.60;99.90;;;;;;5113057;28;20043;-71
2022/03/30 08:36:30;;;;;;;5.72;1.20;;;6.90;99.90;;;;;;5091181;28;20533;-71
2022/03/30 08:38:56;;;;;;;5.72;1.00;;;6.80;99.90;;;;;;5108220;28;20047;-72
2022/03/30 08:41:22;;;;;;;6.57;1.40;;;6.80;99.90;;;;;;5108530;28;20414;-72
2022/03/30 08:43:48;;;;;;;7.50;1.00;;;7.10;99.90;;;;;;5110023;28;20047;-75
2022/03/30 08:46:14;;;;;;;7.50;0.90;;;6.90;99.90;;;;;;5108388;28;20042;-74
2022/03/30 08:48:40;;;;;;;7.53;0.75;;;6.80;99.90;;;;;;5130059;28;20031;-72
2022/03/30 08:51:07;;;;;;;4.00;1.02;;;7.10;99.90;;;;;;5129889;28;20100;-73
2022/03/30 08:53:33;;;;;;;5.57;0.90;;;7.10;99.90;;;;;;5127804;28;20097;-71
2022/03/30 08:56:00;;;;;;;5.97;0.77;;;7.30;99.90;;;;;;5129463;27;20652;-74
2022/03/30 08:58:26;;;;;;;8.95;1.40;;;7.30;99.90;;;;;;5133277;27;20159;-72
2022/03/30 09:00:52;;;;;;;3.67;0.73;;;7.30;99.90;;;;;;5131684;27;20039;-71
2022/03/30 09:03:19;;;;;;;6.55;0.82;;;7.40;99.90;;;;;;5113029;28;20160;-72
2022/03/30 09:05:45;;;;;;;6.72;0.98;;;7.40;99.90;;;;;;5113844;27;20148;-78
2022/03/30 09:08:25;;;;;;;10.02;1.05;;;7.50;99.90;;;;;;5133456;27;20169;-72
2022/03/30 09:10:52;;;;;;;4.03;0.93;;;7.60;99.90;;;;;;5133468;27;20050;-72
2022/03/30 09:13:18;;;;;;;5.85;0.65;;;7.70;99.90;;;;;;5115731;27;20055;-72
2022/03/30 09:15:46;;;;;;;8.48;0.73;;;7.80;99.90;;;;;;5112317;27;20051;-76
2022/03/30 09:18:14;;;;;;;3.17;0.80;;;7.90;99.90;;;;;;5094069;28;20063;-75
2022/03/30 09:20:42;;;;;;;4.57;0.95;;;7.90;99.90;;;;;;5112655;28;20052;-77
2022/03/30 09:23:11;;;;;;;6.95;0.80;;;7.90;99.90;;;;;;5113485;27;20039;-75
2022/03/30 09:25:37;;;;;;;1.67;0.50;;;7.90;99.90;;;;;;5111148;28;20035;-72
2022/03/30 09:28:03;;;;;;;9.45;0.75;;;8.00;99.90;;;;;;5111105;28;20070;-76
2022/03/30 09:30:30;;;;;;;4.55;0.60;;;8.10;99.90;;;;;;5094024;28;20055;-72
2022/03/30 09:32:59;;;;;;;8.40;0.88;;;8.00;99.90;;;;;;5111722;27;20092;-72
2022/03/30 09:35:32;;;;;;;5.97;0.68;;;8.50;99.90;;;;;;5112305;27;20494;-80
2022/03/30 09:38:00;;;;;;;3.08;0.45;;;8.20;99.90;;;;;;5130057;27;20074;-72
2022/03/30 09:41:03;;;;;;;6.68;0.60;;;8.20;99.90;;;;;;5132871;27;20149;-74
2022/03/30 09:43:31;;;;;;;4.50;0.65;;;8.20;99.90;;;;;;5133001;27;20146;-71
2022/03/30 09:46:03;;;;;;;5.82;0.70;;;8.30;99.90;;;;;;5132818;27;20051;-74
2022/03/30 09:48:31;;;;;;;7.32;0.70;;;8.70;99.90;;;;;;5132674;27;20073;-73
2022/03/30 09:50:59;;;;;;;2.92;0.75;;;8.50;99.90;;;;;;5131549;27;20505;-73
2022/03/30 09:53:30;;;;;;;4.32;0.70;;;8.60;99.90;;;;;;5132904;27;20497;-73
2022/03/30 09:56:05;;;;;;;6.05;0.75;;;8.80;99.90;;;;;;5132548;27;20084;-72
2022/03/30 09:58:34;;;;;;;3.58;0.73;;;8.90;99.90;;;;;;5132485;27;20080;-73
2022/03/30 10:01:22;;;;;;;6.35;0.60;;;8.90;99.90;;;;;;5132318;27;20042;-73
2022/03/30 10:03:53;;;;;;;3.47;0.63;;;8.90;99.90;;;;;;5131988;27;20043;-73
2022/03/30 10:06:21;;;;;;;2.58;0.70;;;9.00;99.90;;;;;;5132493;27;20039;-73
2022/03/30 10:08:49;;;;;;;9.05;1.02;;;9.10;99.90;;;;;;5131422;27;20046;-71
2022/03/30 10:11:18;;;;;;;3.42;0.57;;;9.10;99.90;;;;;;5132156;27;20129;-71
2022/03/30 10:13:47;;;;;;;2.92;0.60;;;9.10;99.90;;;;;;5132073;27;20402;-71
2022/03/30 10:16:13;;;;;;;5.63;0.60;;;9.60;99.90;;;;;;5131015;27;20132;-72
2022/03/30 10:18:40;;;;;;;5.10;0.75;;;9.60;99.90;;;;;;5129372;27;20046;-70
2022/03/30 10:21:26;;;;;;;3.97;0.50;;;9.80;99.90;;;;;;5111652;28;20082;-71
2022/03/30 10:23:59;;;;;;;5.03;0.40;;;10.00;99.90;;;;;;5111055;28;20055;-72
2022/03/30 10:26:52;;;;;;;2.97;0.60;;;9.80;99.90;;;;;;5110224;28;20078;-74
2022/03/30 10:29:22;;;;;;;7.82;0.82;;;9.80;99.90;;;;;;5094105;28;20441;-73
2022/03/30 10:32:12;;;;;;;7.25;0.82;;;9.90;99.90;;;;;;5116643;27;20071;-72
2022/03/30 10:34:50;;;;;;;4.82;0.80;;;9.90;99.90;;;;;;5111091;28;20047;-72
2022/03/30 10:37:29;;;;;;;7.75;0.75;;;10.10;99.90;;;;;;5085657;27;20057;-71
2022/03/30 10:40:06;;;;;;;5.00;0.65;;;10.10;99.90;;;;;;5134038;27;20050;-72
2022/03/30 10:42:47;;;;;;;3.50;0.50;;;10.10;99.90;;;;;;5112493;27;20501;-72
2022/03/30 10:45:28;;;;;;;3.63;0.60;;;10.10;99.90;;;;;;5122077;27;20054;-73
2022/03/30 10:48:11;;;;;;;4.82;0.90;;;10.30;99.90;;;;;;5128850;27;20038;-71
2022/03/30 10:50:59;;;;;;;6.97;0.80;;;10.10;99.90;;;;;;5117534;27;20048;-71
2022/03/30 10:53:30;;;;;;;6.88;0.80;;;10.10;99.90;;;;;;5108742;28;20048;-71
2022/03/30 10:56:14;;;;;;;5.47;0.75;;;10.20;99.90;;;;;;5110733;28;20541;-72
2022/03/30 10:59:00;;;;;;;7.22;0.70;;;10.20;99.90;;;;;;5111874;27;20050;-72
2022/03/30 11:01:30;;;;;;;7.00;0.95;;;10.10;99.90;;;;;;5110349;27;20047;-71
2022/03/30 11:04:11;;;;;;;6.32;0.80;;;10.00;99.90;;;;;;5110578;28;20087;-73
2022/03/30 11:06:38;;;;;;;7.18;0.98;;;10.10;99.90;;;;;;5108944;28;20055;-71
2022/03/30 11:09:28;;;;;;;19.58;1.42;;;10.20;99.90;;;;;;5120704;27;20397;-72
2022/03/30 11:12:12;;;;;;;3.75;0.50;;;10.20;99.90;;;;;;5112405;27;20099;-72
2022/03/30 11:14:44;;;;;;;4.50;0.60;;;10.70;99.90;;;;;;5111936;27;20482;-72
2022/03/30 11:17:34;;;;;;;5.35;1.10;;;10.50;99.90;;;;;;5122643;27;20465;-72
2022/03/30 11:20:00;;;;;;;7.40;1.00;;;10.50;99.90;;;;;;5111459;27;20054;-74
2022/03/30 11:22:29;;;;;;;4.97;0.80;;;10.60;99.90;;;;;;5112386;27;20051;-72
2022/03/30 11:25:19;;;;;;;6.05;0.95;;;10.20;99.90;;;;;;5130722;27;20043;-78
2022/03/30 11:27:57;;;;;;;3.53;0.60;;;10.00;99.90;;;;;;5131074;27;20043;-74
2022/03/30 11:30:30;;;;;;;3.63;0.75;;;9.80;99.90;;;;;;5111988;27;20083;-71
2022/03/30 11:33:17;;;;;;;5.57;0.82;;;9.70;99.90;;;;;;5121199;27;20048;-71
2022/03/30 11:35:43;;;;;;;7.60;0.77;;;9.70;99.90;;;;;;5086706;28;20052;-70
2022/03/30 11:38:15;;;;;;;5.38;0.82;;;9.40;99.90;;;;;;5106516;28;20090;-70
2022/03/30 11:40:45;;;;;;;8.38;1.00;;;9.30;99.90;;;;;;5110257;28;20051;-71
2022/03/30 11:43:12;;;;;;;7.82;1.00;;;9.40;99.90;;;;;;5111060;28;20051;-72
2022/03/30 11:45:38;;;;;;;7.22;1.02;;;9.80;99.90;;;;;;5110249;28;20058;-71
2022/03/30 11:48:07;;;;;;;3.17;0.63;;;9.40;99.90;;;;;;5109798;28;20039;-74
2022/03/30 11:50:34;;;;;;;5.88;0.73;;;9.20;99.90;;;;;;5110053;28;20445;-71
2022/03/30 11:53:04;;;;;;;1.73;0.50;;;9.20;99.90;;;;;;5109905;28;20092;-73
2022/03/30 11:55:35;;;;;;;4.10;0.57;;;9.20;99.90;;;;;;5111162;28;20119;-70
2022/03/30 11:58:03;;;;;;;3.20;0.60;;;9.30;99.90;;;;;;5109123;28;20081;-70
2022/03/30 12:00:29;;;;;;;3.92;0.80;;;9.40;99.90;;;;;;5101772;28;20126;-70
2022/03/30 12:02:57;;;;;;;4.57;1.02;;;9.50;99.90;;;;;;5110184;28;20183;-70
2022/03/30 12:05:23;;;;;;;7.50;0.88;;;9.60;99.90;;;;;;5118700;27;20055;-70
2022/03/30 12:07:54;;;;;;;4.40;0.88;;;9.60;99.90;;;;;;5130326;28;20047;-70
2022/03/30 12:10:26;;;;;;;2.50;0.80;;;9.90;99.90;;;;;;5130386;28;20122;-73
2022/03/30 12:12:52;;;;;;;4.93;0.63;;;10.00;99.90;;;;;;5130297;27;20067;-71
2022/03/30 12:15:19;;;;;;;3.25;0.70;;;10.10;99.90;;;;;;5111141;28;20058;-71
2022/03/30 12:17:56;;;;;;;5.32;0.85;;;10.20;99.90;;;;;;5129886;28;20046;-70
2022/03/30 12:20:31;;;;;;;3.30;0.63;;;10.30;99.90;;;;;;5110570;28;20062;-71
2022/03/30 12:23:03;;;;;;;;;;;10.60;99.90;;;;;;5108438;28;20039;-72
2022/03/30 12:25:36;;;;;;;2.72;0.50;;;10.40;99.90;;;;;;5108389;28;19923;-71
2022/03/30 12:28:03;;;;;;;1.77;0.40;;;10.50;99.90;;;;;;5109799;28;20047;-72
2022/03/30 12:30:32;;;;;;;2.45;0.30;;;10.20;97.70;;;;;;5075143;28;20798;-72
2022/03/30 12:32:58;;;;;;;3.00;0.70;;;10.10;98.80;;;;;;5114250;28;20071;-72
2022/03/30 12:35:35;;;;;;;7.22;0.70;;;10.10;99.80;;;;;;5121982;27;20516;-72
2022/03/30 12:38:11;;;;;;;5.28;0.60;;;10.10;99.30;;;;;;5133770;27;20042;-76
2022/03/30 12:40:39;;;;;;;5.68;0.82;;;10.00;98.40;;;;;;5132729;27;20055;-73
2022/03/30 12:43:06;;;;;;;7.32;0.80;;;10.10;99.10;;;;;;5134268;27;20050;-74
2022/03/30 12:45:33;;;;;;;5.18;0.73;;;10.10;98.50;;;;;;5134179;27;20051;-73
2022/03/30 12:48:01;;;;;;;3.63;0.60;;;10.10;99.10;;;;;;5134218;27;20035;-73
2022/03/30 12:50:32;;;;;;;3.63;1.02;;;10.30;98.70;;;;;;5134025;27;20054;-75
2022/03/30 12:53:15;;;;;;;5.40;0.73;;;10.30;99.10;;;;;;5132602;27;20043;-71
2022/03/30 12:55:47;;;;;;;6.93;0.70;;;10.30;98.20;;;;;;5132741;27;20499;-74
2022/03/30 12:58:23;;;;;;;3.58;0.68;;;10.40;98.50;;;;;;5132474;27;20494;-71
2022/03/30 13:00:54;;;;;;;3.65;0.60;;;10.60;98.90;;;;;;5132831;27;20059;-75
2022/03/30 13:03:24;;;;;;;6.53;0.90;;;10.80;97.30;;;;;;5133921;27;20043;-71
2022/03/30 13:06:18;;;;;;;3.20;0.60;;;10.70;97.40;;;;;;5132486;27;20051;-72
2022/03/30 13:09:05;;;;;;;6.55;0.80;;;10.60;98.00;;;;;;5134095;27;20054;-72